sensor_id;sensor_type;location;lat;lon;timestamp;P1;durP1;ratioP1;P2;durP2;ratioP2
35743;SDS011;21867;52.012;4.324;2024-02-26T00:03:16;3.33;;;3.13;;
35743;SDS011;21867;52.012;4.324;2024-02-26T00:05:43;2.40;;;2.30;;
35743;SDS011;21867;52.012;4.324;2024-02-26T00:08:11;2.93;;;2.73;;
35743;SDS011;21867;52.012;4.324;2024-02-26T00:10:38;3.67;;;3.33;;
35743;SDS011;21867;52.012;4.324;2024-02-26T00:13:05;4.23;;;3.83;;
35743;SDS011;21867;52.012;4.324;2024-02-26T00:15:52;3.30;;;3.03;;
35743;SDS011;21867;52.012;4.324;2024-02-26T00:18:20;4.83;;;3.50;;
35743;SDS011;21867;52.012;4.324;2024-02-26T00:20:48;3.37;;;2.93;;
35743;SDS011;21867;52.012;4.324;2024-02-26T00:23:16;3.37;;;3.10;;
35743;SDS011;21867;52.012;4.324;2024-02-26T00:32:32;3.70;;;3.40;;
35743;SDS011;21867;52.012;4.324;2024-02-26T00:35:01;8.23;;;4.70;;
35743;SDS011;21867;52.012;4.324;2024-02-26T00:37:28;3.57;;;3.23;;
35743;SDS011;21867;52.012;4.324;2024-02-26T00:39:56;3.27;;;3.00;;
35743;SDS011;21867;52.012;4.324;2024-02-26T00:42:23;3.60;;;3.30;;
35743;SDS011;21867;52.012;4.324;2024-02-26T00:44:50;3.57;;;3.03;;
35743;SDS011;21867;52.012;4.324;2024-02-26T00:47:19;3.43;;;3.13;;
35743;SDS011;21867;52.012;4.324;2024-02-26T00:49:46;3.23;;;3.03;;
35743;SDS011;21867;52.012;4.324;2024-02-26T00:52:15;3.77;;;3.47;;
35743;SDS011;21867;52.012;4.324;2024-02-26T00:54:42;3.33;;;3.03;;
35743;SDS011;21867;52.012;4.324;2024-02-26T00:57:09;3.10;;;2.90;;
35743;SDS011;21867;52.012;4.324;2024-02-26T00:59:37;3.90;;;3.50;;
35743;SDS011;21867;52.012;4.324;2024-02-26T01:02:04;3.70;;;3.40;;
35743;SDS011;21867;52.012;4.324;2024-02-26T01:04:32;3.63;;;3.43;;
35743;SDS011;21867;52.012;4.324;2024-02-26T01:06:59;3.80;;;3.50;;
35743;SDS011;21867;52.012;4.324;2024-02-26T01:09:28;4.50;;;4.10;;
35743;SDS011;21867;52.012;4.324;2024-02-26T01:11:56;3.87;;;3.57;;
35743;SDS011;21867;52.012;4.324;2024-02-26T01:14:23;3.93;;;3.17;;
35743;SDS011;21867;52.012;4.324;2024-02-26T01:23:36;4.00;;;3.30;;
35743;SDS011;21867;52.012;4.324;2024-02-26T01:26:05;4.03;;;3.53;;
35743;SDS011;21867;52.012;4.324;2024-02-26T01:28:32;3.80;;;3.37;;
35743;SDS011;21867;52.012;4.324;2024-02-26T01:31:03;3.77;;;3.47;;
35743;SDS011;21867;52.012;4.324;2024-02-26T01:33:30;4.27;;;3.80;;
35743;SDS011;21867;52.012;4.324;2024-02-26T01:35:58;3.93;;;3.63;;
35743;SDS011;21867;52.012;4.324;2024-02-26T01:38:25;4.43;;;4.13;;
35743;SDS011;21867;52.012;4.324;2024-02-26T01:40:53;2.77;;;2.57;;
35743;SDS011;21867;52.012;4.324;2024-02-26T01:43:21;8.17;;;4.57;;
35743;SDS011;21867;52.012;4.324;2024-02-26T01:48:39;3.80;;;3.20;;
35743;SDS011;21867;52.012;4.324;2024-02-26T01:51:06;3.77;;;3.47;;
35743;SDS011;21867;52.012;4.324;2024-02-26T01:53:34;3.73;;;3.43;;
35743;SDS011;21867;52.012;4.324;2024-02-26T01:59:53;4.07;;;3.77;;
35743;SDS011;21867;52.012;4.324;2024-02-26T02:02:21;4.57;;;4.20;;
35743;SDS011;21867;52.012;4.324;2024-02-26T02:04:48;4.40;;;4.07;;
35743;SDS011;21867;52.012;4.324;2024-02-26T02:07:16;4.13;;;3.70;;
35743;SDS011;21867;52.012;4.324;2024-02-26T02:09:43;4.00;;;3.70;;
35743;SDS011;21867;52.012;4.324;2024-02-26T02:12:10;3.97;;;3.63;;
35743;SDS011;21867;52.012;4.324;2024-02-26T02:14:57;4.67;;;4.27;;
35743;SDS011;21867;52.012;4.324;2024-02-26T02:17:25;5.17;;;4.73;;
35743;SDS011;21867;52.012;4.324;2024-02-26T02:19:52;4.23;;;3.87;;
35743;SDS011;21867;52.012;4.324;2024-02-26T02:22:21;4.70;;;4.30;;
35743;SDS011;21867;52.012;4.324;2024-02-26T02:24:58;4.83;;;4.47;;
35743;SDS011;21867;52.012;4.324;2024-02-26T02:30:30;4.97;;;4.23;;
35743;SDS011;21867;52.012;4.324;2024-02-26T02:32:58;4.70;;;4.30;;
35743;SDS011;21867;52.012;4.324;2024-02-26T02:35:25;4.70;;;4.30;;
35743;SDS011;21867;52.012;4.324;2024-02-26T02:37:55;3.13;;;2.83;;
35743;SDS011;21867;52.012;4.324;2024-02-26T02:40:23;5.47;;;5.07;;
35743;SDS011;21867;52.012;4.324;2024-02-26T02:42:50;4.23;;;3.53;;
35743;SDS011;21867;52.012;4.324;2024-02-26T02:48:09;5.30;;;4.90;;
35743;SDS011;21867;52.012;4.324;2024-02-26T02:50:37;6.20;;;5.27;;
35743;SDS011;21867;52.012;4.324;2024-02-26T02:53:05;6.40;;;5.87;;
35743;SDS011;21867;52.012;4.324;2024-02-26T03:01:34;5.50;;;5.07;;
35743;SDS011;21867;52.012;4.324;2024-02-26T03:04:01;6.13;;;5.63;;
35743;SDS011;21867;52.012;4.324;2024-02-26T03:06:29;6.83;;;6.13;;
35743;SDS011;21867;52.012;4.324;2024-02-26T03:09:07;5.30;;;4.80;;
35743;SDS011;21867;52.012;4.324;2024-02-26T03:11:34;4.53;;;4.13;;
35743;SDS011;21867;52.012;4.324;2024-02-26T03:16:44;5.60;;;4.90;;
35743;SDS011;21867;52.012;4.324;2024-02-26T03:19:13;6.90;;;4.83;;
35743;SDS011;21867;52.012;4.324;2024-02-26T03:21:41;5.27;;;4.43;;
35743;SDS011;21867;52.012;4.324;2024-02-26T03:24:10;5.20;;;4.70;;
35743;SDS011;21867;52.012;4.324;2024-02-26T03:26:38;4.47;;;4.13;;
35743;SDS011;21867;52.012;4.324;2024-02-26T03:29:16;4.47;;;4.13;;
35743;SDS011;21867;52.012;4.324;2024-02-26T03:31:44;3.73;;;3.43;;
35743;SDS011;21867;52.012;4.324;2024-02-26T03:34:27;5.07;;;4.60;;
35743;SDS011;21867;52.012;4.324;2024-02-26T03:36:55;4.83;;;4.33;;
35743;SDS011;21867;52.012;4.324;2024-02-26T03:39:23;4.77;;;4.37;;
35743;SDS011;21867;52.012;4.324;2024-02-26T03:41:51;5.00;;;4.60;;
35743;SDS011;21867;52.012;4.324;2024-02-26T03:44:18;3.20;;;3.00;;
35743;SDS011;21867;52.012;4.324;2024-02-26T03:46:46;6.17;;;5.67;;
35743;SDS011;21867;52.012;4.324;2024-02-26T03:51:55;4.50;;;4.10;;
35743;SDS011;21867;52.012;4.324;2024-02-26T03:54:26;5.37;;;4.87;;
35743;SDS011;21867;52.012;4.324;2024-02-26T03:56:54;5.37;;;4.87;;
35743;SDS011;21867;52.012;4.324;2024-02-26T03:59:21;4.83;;;4.53;;
35743;SDS011;21867;52.012;4.324;2024-02-26T04:01:50;5.60;;;4.73;;
35743;SDS011;21867;52.012;4.324;2024-02-26T04:11:05;4.83;;;4.40;;
35743;SDS011;21867;52.012;4.324;2024-02-26T04:13:32;6.57;;;5.97;;
35743;SDS011;21867;52.012;4.324;2024-02-26T04:16:00;5.60;;;5.10;;
35743;SDS011;21867;52.012;4.324;2024-02-26T04:18:37;5.27;;;4.77;;
35743;SDS011;21867;52.012;4.324;2024-02-26T04:21:04;5.17;;;4.37;;
35743;SDS011;21867;52.012;4.324;2024-02-26T04:23:34;5.80;;;5.30;;
35743;SDS011;21867;52.012;4.324;2024-02-26T04:26:01;6.23;;;5.17;;
35743;SDS011;21867;52.012;4.324;2024-02-26T04:28:30;5.67;;;5.17;;
35743;SDS011;21867;52.012;4.324;2024-02-26T04:30:57;5.23;;;4.73;;
35743;SDS011;21867;52.012;4.324;2024-02-26T04:36:12;6.17;;;5.57;;
35743;SDS011;21867;52.012;4.324;2024-02-26T04:38:40;5.60;;;4.97;;
35743;SDS011;21867;52.012;4.324;2024-02-26T04:41:07;6.30;;;4.90;;
35743;SDS011;21867;52.012;4.324;2024-02-26T04:43:48;6.80;;;6.13;;
35743;SDS011;21867;52.012;4.324;2024-02-26T04:49:14;5.70;;;5.20;;
35743;SDS011;21867;52.012;4.324;2024-02-26T04:51:41;7.40;;;6.70;;
35743;SDS011;21867;52.012;4.324;2024-02-26T04:54:09;4.73;;;4.33;;
35743;SDS011;21867;52.012;4.324;2024-02-26T04:56:36;6.57;;;5.90;;
35743;SDS011;21867;52.012;4.324;2024-02-26T04:59:05;7.13;;;6.43;;
35743;SDS011;21867;52.012;4.324;2024-02-26T05:01:32;6.30;;;4.97;;
35743;SDS011;21867;52.012;4.324;2024-02-26T05:04:00;6.23;;;5.37;;
35743;SDS011;21867;52.012;4.324;2024-02-26T05:06:27;4.73;;;4.33;;
35743;SDS011;21867;52.012;4.324;2024-02-26T05:08:55;8.33;;;7.47;;
35743;SDS011;21867;52.012;4.324;2024-02-26T05:11:22;7.33;;;6.20;;
35743;SDS011;21867;52.012;4.324;2024-02-26T05:13:59;6.77;;;6.17;;
35743;SDS011;21867;52.012;4.324;2024-02-26T05:19:36;6.43;;;5.83;;
35743;SDS011;21867;52.012;4.324;2024-02-26T05:22:04;7.60;;;6.27;;
35743;SDS011;21867;52.012;4.324;2024-02-26T05:24:31;7.87;;;6.83;;
35743;SDS011;21867;52.012;4.324;2024-02-26T05:29:27;5.70;;;5.20;;
35743;SDS011;21867;52.012;4.324;2024-02-26T05:31:55;5.93;;;5.37;;
35743;SDS011;21867;52.012;4.324;2024-02-26T05:34:37;6.30;;;5.70;;
35743;SDS011;21867;52.012;4.324;2024-02-26T05:37:04;6.10;;;5.50;;
35743;SDS011;21867;52.012;4.324;2024-02-26T05:39:31;6.53;;;5.80;;
35743;SDS011;21867;52.012;4.324;2024-02-26T05:41:59;8.40;;;7.60;;
35743;SDS011;21867;52.012;4.324;2024-02-26T05:48:21;6.33;;;5.70;;
35743;SDS011;21867;52.012;4.324;2024-02-26T05:50:51;3.30;;;3.00;;
35743;SDS011;21867;52.012;4.324;2024-02-26T05:53:18;6.83;;;6.17;;
35743;SDS011;21867;52.012;4.324;2024-02-26T05:55:45;10.00;;;7.73;;
35743;SDS011;21867;52.012;4.324;2024-02-26T05:58:13;4.37;;;4.00;;
35743;SDS011;21867;52.012;4.324;2024-02-26T06:00:40;8.07;;;7.27;;
35743;SDS011;21867;52.012;4.324;2024-02-26T06:05:51;9.27;;;7.57;;
35743;SDS011;21867;52.012;4.324;2024-02-26T06:08:19;8.20;;;7.07;;
35743;SDS011;21867;52.012;4.324;2024-02-26T06:10:47;6.83;;;5.67;;
35743;SDS011;21867;52.012;4.324;2024-02-26T06:16:08;7.97;;;7.03;;
35743;SDS011;21867;52.012;4.324;2024-02-26T06:18:45;6.90;;;6.20;;
35743;SDS011;21867;52.012;4.324;2024-02-26T06:21:14;9.23;;;7.83;;
35743;SDS011;21867;52.012;4.324;2024-02-26T06:23:42;10.77;;;8.90;;
35743;SDS011;21867;52.012;4.324;2024-02-26T06:26:09;12.77;;;8.73;;
35743;SDS011;21867;52.012;4.324;2024-02-26T06:28:36;11.73;;;8.70;;
35743;SDS011;21867;52.012;4.324;2024-02-26T06:31:04;11.83;;;9.47;;
35743;SDS011;21867;52.012;4.324;2024-02-26T06:33:31;9.93;;;7.33;;
35743;SDS011;21867;52.012;4.324;2024-02-26T06:35:58;11.13;;;9.53;;
35743;SDS011;21867;52.012;4.324;2024-02-26T06:38:27;9.47;;;8.20;;
35743;SDS011;21867;52.012;4.324;2024-02-26T06:40:55;6.23;;;5.60;;
35743;SDS011;21867;52.012;4.324;2024-02-26T06:43:22;12.03;;;9.93;;
35743;SDS011;21867;52.012;4.324;2024-02-26T06:45:49;12.60;;;9.10;;
35743;SDS011;21867;52.012;4.324;2024-02-26T06:48:17;11.00;;;9.90;;
35743;SDS011;21867;52.012;4.324;2024-02-26T06:50:45;11.40;;;9.80;;
35743;SDS011;21867;52.012;4.324;2024-02-26T06:53:12;5.90;;;5.33;;
35743;SDS011;21867;52.012;4.324;2024-02-26T06:55:41;10.33;;;9.23;;
35743;SDS011;21867;52.012;4.324;2024-02-26T06:58:09;8.87;;;7.97;;
35743;SDS011;21867;52.012;4.324;2024-02-26T07:00:36;10.37;;;9.30;;
35743;SDS011;21867;52.012;4.324;2024-02-26T07:03:04;12.73;;;10.07;;
35743;SDS011;21867;52.012;4.324;2024-02-26T07:05:32;9.43;;;8.53;;
35743;SDS011;21867;52.012;4.324;2024-02-26T07:07:59;13.83;;;11.33;;
35743;SDS011;21867;52.012;4.324;2024-02-26T07:10:27;9.07;;;7.27;;
35743;SDS011;21867;52.012;4.324;2024-02-26T07:12:55;9.83;;;8.83;;
35743;SDS011;21867;52.012;4.324;2024-02-26T07:15:23;7.13;;;6.43;;
35743;SDS011;21867;52.012;4.324;2024-02-26T07:20:33;9.63;;;8.63;;
35743;SDS011;21867;52.012;4.324;2024-02-26T07:23:00;10.63;;;9.53;;
35743;SDS011;21867;52.012;4.324;2024-02-26T07:25:28;11.83;;;10.63;;
35743;SDS011;21867;52.012;4.324;2024-02-26T07:27:56;10.63;;;9.53;;
35743;SDS011;21867;52.012;4.324;2024-02-26T07:30:24;10.67;;;4.07;;
35743;SDS011;21867;52.012;4.324;2024-02-26T07:32:51;18.20;;;10.20;;
35743;SDS011;21867;52.012;4.324;2024-02-26T07:41:43;8.77;;;7.10;;
35743;SDS011;21867;52.012;4.324;2024-02-26T07:44:12;11.87;;;7.47;;
35743;SDS011;21867;52.012;4.324;2024-02-26T07:46:39;9.57;;;8.67;;
35743;SDS011;21867;52.012;4.324;2024-02-26T07:49:19;7.03;;;6.20;;
35743;SDS011;21867;52.012;4.324;2024-02-26T07:51:47;7.93;;;7.07;;
35743;SDS011;21867;52.012;4.324;2024-02-26T07:54:14;7.97;;;6.33;;
35743;SDS011;21867;52.012;4.324;2024-02-26T07:56:42;5.60;;;5.00;;
35743;SDS011;21867;52.012;4.324;2024-02-26T07:59:09;10.50;;;9.00;;
35743;SDS011;21867;52.012;4.324;2024-02-26T08:01:38;11.10;;;6.53;;
35743;SDS011;21867;52.012;4.324;2024-02-26T08:06:41;7.70;;;6.33;;
35743;SDS011;21867;52.012;4.324;2024-02-26T08:09:09;8.37;;;7.40;;
35743;SDS011;21867;52.012;4.324;2024-02-26T08:11:36;9.57;;;7.50;;
35743;SDS011;21867;52.012;4.324;2024-02-26T08:17:53;5.80;;;5.07;;
35743;SDS011;21867;52.012;4.324;2024-02-26T08:20:20;12.60;;;4.37;;
35743;SDS011;21867;52.012;4.324;2024-02-26T08:22:48;6.27;;;4.00;;
35743;SDS011;21867;52.012;4.324;2024-02-26T08:25:15;5.73;;;5.23;;
35743;SDS011;21867;52.012;4.324;2024-02-26T08:27:42;4.33;;;4.03;;
35743;SDS011;21867;52.012;4.324;2024-02-26T08:30:10;4.87;;;3.97;;
35743;SDS011;21867;52.012;4.324;2024-02-26T08:35:28;4.73;;;4.27;;
35743;SDS011;21867;52.012;4.324;2024-02-26T08:37:56;5.53;;;5.03;;
35743;SDS011;21867;52.012;4.324;2024-02-26T08:40:23;2.47;;;2.27;;
35743;SDS011;21867;52.012;4.324;2024-02-26T08:42:51;4.77;;;4.27;;
35743;SDS011;21867;52.012;4.324;2024-02-26T08:45:18;5.80;;;5.20;;
35743;SDS011;21867;52.012;4.324;2024-02-26T08:47:50;4.83;;;4.33;;
35743;SDS011;21867;52.012;4.324;2024-02-26T08:56:34;4.23;;;3.87;;
35743;SDS011;21867;52.012;4.324;2024-02-26T08:59:01;6.67;;;5.73;;
35743;SDS011;21867;52.012;4.324;2024-02-26T09:01:28;4.50;;;4.10;;
35743;SDS011;21867;52.012;4.324;2024-02-26T09:03:56;5.27;;;4.57;;
35743;SDS011;21867;52.012;4.324;2024-02-26T09:06:23;3.13;;;2.93;;
35743;SDS011;21867;52.012;4.324;2024-02-26T09:11:39;6.20;;;5.27;;
35743;SDS011;21867;52.012;4.324;2024-02-26T09:14:06;5.80;;;5.30;;
35743;SDS011;21867;52.012;4.324;2024-02-26T09:16:34;5.37;;;4.43;;
35743;SDS011;21867;52.012;4.324;2024-02-26T09:25:17;5.10;;;4.70;;
35743;SDS011;21867;52.012;4.324;2024-02-26T09:27:46;5.97;;;5.40;;
35743;SDS011;21867;52.012;4.324;2024-02-26T09:30:14;5.73;;;5.23;;
35743;SDS011;21867;52.012;4.324;2024-02-26T09:32:41;5.30;;;4.83;;
35743;SDS011;21867;52.012;4.324;2024-02-26T09:35:13;2.93;;;2.73;;
35743;SDS011;21867;52.012;4.324;2024-02-26T09:37:52;5.77;;;3.80;;
35743;SDS011;21867;52.012;4.324;2024-02-26T09:40:19;4.07;;;3.77;;
35743;SDS011;21867;52.012;4.324;2024-02-26T09:42:49;3.50;;;3.20;;
35743;SDS011;21867;52.012;4.324;2024-02-26T09:45:19;4.93;;;4.43;;
35743;SDS011;21867;52.012;4.324;2024-02-26T09:54:30;8.90;;;4.30;;
35743;SDS011;21867;52.012;4.324;2024-02-26T09:56:59;5.23;;;4.83;;
35743;SDS011;21867;52.012;4.324;2024-02-26T09:59:34;4.27;;;3.17;;
35743;SDS011;21867;52.012;4.324;2024-02-26T10:02:06;5.00;;;4.60;;
35743;SDS011;21867;52.012;4.324;2024-02-26T10:04:36;4.27;;;3.90;;
35743;SDS011;21867;52.012;4.324;2024-02-26T10:09:46;3.37;;;3.17;;
35743;SDS011;21867;52.012;4.324;2024-02-26T10:12:14;5.13;;;4.40;;
35743;SDS011;21867;52.012;4.324;2024-02-26T10:14:43;4.60;;;4.03;;
35743;SDS011;21867;52.012;4.324;2024-02-26T10:17:17;4.17;;;3.77;;
35743;SDS011;21867;52.012;4.324;2024-02-26T10:23:40;4.37;;;3.97;;
35743;SDS011;21867;52.012;4.324;2024-02-26T10:26:11;5.10;;;4.70;;
35743;SDS011;21867;52.012;4.324;2024-02-26T10:28:39;5.60;;;5.10;;
35743;SDS011;21867;52.012;4.324;2024-02-26T10:31:08;4.87;;;4.23;;
35743;SDS011;21867;52.012;4.324;2024-02-26T10:33:36;5.10;;;4.60;;
35743;SDS011;21867;52.012;4.324;2024-02-26T10:36:09;6.77;;;5.23;;
35743;SDS011;21867;52.012;4.324;2024-02-26T10:38:38;5.33;;;4.10;;
35743;SDS011;21867;52.012;4.324;2024-02-26T10:41:05;5.93;;;4.07;;
35743;SDS011;21867;52.012;4.324;2024-02-26T10:43:33;4.03;;;3.73;;
35743;SDS011;21867;52.012;4.324;2024-02-26T10:46:00;3.70;;;3.40;;
35743;SDS011;21867;52.012;4.324;2024-02-26T10:54:04;4.80;;;4.40;;
35743;SDS011;21867;52.012;4.324;2024-02-26T10:56:33;4.67;;;4.37;;
35743;SDS011;21867;52.012;4.324;2024-02-26T10:59:01;3.87;;;3.57;;
35743;SDS011;21867;52.012;4.324;2024-02-26T11:01:28;4.93;;;4.53;;
35743;SDS011;21867;52.012;4.324;2024-02-26T11:03:58;5.30;;;3.93;;
35743;SDS011;21867;52.012;4.324;2024-02-26T11:09:16;4.67;;;4.27;;
35743;SDS011;21867;52.012;4.324;2024-02-26T11:11:43;4.27;;;3.70;;
35743;SDS011;21867;52.012;4.324;2024-02-26T11:14:11;4.67;;;3.97;;
35743;SDS011;21867;52.012;4.324;2024-02-26T11:20:34;3.37;;;3.07;;
35743;SDS011;21867;52.012;4.324;2024-02-26T11:23:01;5.57;;;4.53;;
35743;SDS011;21867;52.012;4.324;2024-02-26T11:25:30;5.17;;;4.67;;
35743;SDS011;21867;52.012;4.324;2024-02-26T11:28:01;3.47;;;3.13;;
35743;SDS011;21867;52.012;4.324;2024-02-26T11:30:30;4.53;;;4.13;;
35743;SDS011;21867;52.012;4.324;2024-02-26T11:32:58;5.33;;;4.27;;
35743;SDS011;21867;52.012;4.324;2024-02-26T11:38:24;4.27;;;3.87;;
35743;SDS011;21867;52.012;4.324;2024-02-26T11:40:53;7.20;;;4.33;;
35743;SDS011;21867;52.012;4.324;2024-02-26T11:43:23;5.20;;;4.63;;
35743;SDS011;21867;52.012;4.324;2024-02-26T11:46:02;3.57;;;3.10;;
35743;SDS011;21867;52.012;4.324;2024-02-26T11:51:32;4.33;;;4.03;;
35743;SDS011;21867;52.012;4.324;2024-02-26T11:53:59;3.37;;;3.07;;
35743;SDS011;21867;52.012;4.324;2024-02-26T11:56:28;4.20;;;3.87;;
35743;SDS011;21867;52.012;4.324;2024-02-26T11:58:59;3.23;;;3.03;;
35743;SDS011;21867;52.012;4.324;2024-02-26T12:01:40;4.40;;;3.93;;
35743;SDS011;21867;52.012;4.324;2024-02-26T12:04:07;4.50;;;4.20;;
35743;SDS011;21867;52.012;4.324;2024-02-26T12:06:51;6.70;;;4.77;;
35743;SDS011;21867;52.012;4.324;2024-02-26T12:09:32;4.60;;;4.20;;
35743;SDS011;21867;52.012;4.324;2024-02-26T12:12:02;3.27;;;3.00;;
35743;SDS011;21867;52.012;4.324;2024-02-26T12:14:32;4.37;;;3.97;;
35743;SDS011;21867;52.012;4.324;2024-02-26T12:20:10;3.93;;;2.50;;
35743;SDS011;21867;52.012;4.324;2024-02-26T12:25:06;3.03;;;2.83;;
35743;SDS011;21867;52.012;4.324;2024-02-26T12:27:35;3.37;;;3.17;;
35743;SDS011;21867;52.012;4.324;2024-02-26T12:30:02;3.73;;;3.30;;
35743;SDS011;21867;52.012;4.324;2024-02-26T12:32:30;4.80;;;3.57;;
35743;SDS011;21867;52.012;4.324;2024-02-26T12:34:58;7.43;;;3.40;;
35743;SDS011;21867;52.012;4.324;2024-02-26T12:37:26;6.30;;;3.73;;
35743;SDS011;21867;52.012;4.324;2024-02-26T12:39:54;2.90;;;2.70;;
35743;SDS011;21867;52.012;4.324;2024-02-26T12:42:21;3.30;;;3.00;;
35743;SDS011;21867;52.012;4.324;2024-02-26T12:44:52;3.63;;;3.27;;
35743;SDS011;21867;52.012;4.324;2024-02-26T12:47:19;3.93;;;2.67;;
35743;SDS011;21867;52.012;4.324;2024-02-26T12:55:26;3.27;;;2.70;;
35743;SDS011;21867;52.012;4.324;2024-02-26T12:57:54;3.40;;;2.87;;
35743;SDS011;21867;52.012;4.324;2024-02-26T13:00:25;5.10;;;3.40;;
35743;SDS011;21867;52.012;4.324;2024-02-26T13:02:52;5.10;;;3.43;;
35743;SDS011;21867;52.012;4.324;2024-02-26T13:05:26;3.10;;;2.87;;
35743;SDS011;21867;52.012;4.324;2024-02-26T13:07:54;4.13;;;2.93;;
35743;SDS011;21867;52.012;4.324;2024-02-26T13:10:22;4.67;;;3.50;;
35743;SDS011;21867;52.012;4.324;2024-02-26T13:12:50;5.20;;;3.53;;
35743;SDS011;21867;52.012;4.324;2024-02-26T13:15:18;3.80;;;3.47;;
35743;SDS011;21867;52.012;4.324;2024-02-26T13:17:48;4.77;;;3.50;;
35743;SDS011;21867;52.012;4.324;2024-02-26T13:20:31;2.50;;;2.40;;
35743;SDS011;21867;52.012;4.324;2024-02-26T13:23:01;3.63;;;3.33;;
35743;SDS011;21867;52.012;4.324;2024-02-26T13:25:29;7.03;;;4.23;;
35743;SDS011;21867;52.012;4.324;2024-02-26T13:28:05;3.80;;;3.40;;
35743;SDS011;21867;52.012;4.324;2024-02-26T13:33:56;2.70;;;2.50;;
35743;SDS011;21867;52.012;4.324;2024-02-26T13:36:24;3.57;;;3.27;;
35743;SDS011;21867;52.012;4.324;2024-02-26T13:38:52;6.03;;;3.90;;
35743;SDS011;21867;52.012;4.324;2024-02-26T13:41:19;5.73;;;3.17;;
35743;SDS011;21867;52.012;4.324;2024-02-26T13:43:47;3.43;;;3.13;;
35743;SDS011;21867;52.012;4.324;2024-02-26T13:46:14;4.63;;;3.43;;
35743;SDS011;21867;52.012;4.324;2024-02-26T13:48:42;3.70;;;3.40;;
35743;SDS011;21867;52.012;4.324;2024-02-26T13:51:11;2.90;;;2.70;;
35743;SDS011;21867;52.012;4.324;2024-02-26T13:53:38;3.70;;;3.03;;
35743;SDS011;21867;52.012;4.324;2024-02-26T13:56:06;5.20;;;3.10;;
35743;SDS011;21867;52.012;4.324;2024-02-26T13:58:34;3.40;;;3.10;;
35743;SDS011;21867;52.012;4.324;2024-02-26T14:01:01;6.53;;;3.23;;
35743;SDS011;21867;52.012;4.324;2024-02-26T14:03:28;4.57;;;3.43;;
35743;SDS011;21867;52.012;4.324;2024-02-26T14:08:58;6.10;;;2.97;;
35743;SDS011;21867;52.012;4.324;2024-02-26T14:11:26;3.20;;;2.90;;
35743;SDS011;21867;52.012;4.324;2024-02-26T14:13:54;3.20;;;2.90;;
35743;SDS011;21867;52.012;4.324;2024-02-26T14:16:21;3.33;;;2.93;;
35743;SDS011;21867;52.012;4.324;2024-02-26T14:18:49;3.43;;;3.13;;
35743;SDS011;21867;52.012;4.324;2024-02-26T14:21:16;3.37;;;3.00;;
35743;SDS011;21867;52.012;4.324;2024-02-26T14:26:36;2.63;;;2.43;;
35743;SDS011;21867;52.012;4.324;2024-02-26T14:29:04;2.87;;;2.67;;
35743;SDS011;21867;52.012;4.324;2024-02-26T14:31:31;3.00;;;2.63;;
35743;SDS011;21867;52.012;4.324;2024-02-26T14:43:36;3.27;;;2.23;;
35743;SDS011;21867;52.012;4.324;2024-02-26T14:46:03;4.90;;;2.70;;
35743;SDS011;21867;52.012;4.324;2024-02-26T14:48:31;4.40;;;3.17;;
35743;SDS011;21867;52.012;4.324;2024-02-26T14:50:58;3.30;;;2.97;;
35743;SDS011;21867;52.012;4.324;2024-02-26T14:59:07;3.17;;;2.77;;
35743;SDS011;21867;52.012;4.324;2024-02-26T15:01:34;3.97;;;2.97;;
35743;SDS011;21867;52.012;4.324;2024-02-26T15:11:18;3.87;;;3.30;;
35743;SDS011;21867;52.012;4.324;2024-02-26T15:13:46;5.63;;;3.47;;
35743;SDS011;21867;52.012;4.324;2024-02-26T15:16:18;4.17;;;3.67;;
35743;SDS011;21867;52.012;4.324;2024-02-26T15:18:45;6.90;;;3.77;;
35743;SDS011;21867;52.012;4.324;2024-02-26T15:21:13;4.67;;;3.87;;
35743;SDS011;21867;52.012;4.324;2024-02-26T15:23:56;3.70;;;3.40;;
35743;SDS011;21867;52.012;4.324;2024-02-26T15:26:33;4.90;;;3.60;;
35743;SDS011;21867;52.012;4.324;2024-02-26T15:29:00;4.03;;;3.43;;
35743;SDS011;21867;52.012;4.324;2024-02-26T15:31:29;4.97;;;3.30;;
35743;SDS011;21867;52.012;4.324;2024-02-26T15:42:37;5.70;;;4.57;;
35743;SDS011;21867;52.012;4.324;2024-02-26T15:45:05;8.67;;;4.10;;
35743;SDS011;21867;52.012;4.324;2024-02-26T15:47:34;10.30;;;3.90;;
35743;SDS011;21867;52.012;4.324;2024-02-26T15:50:01;3.73;;;3.37;;
35743;SDS011;21867;52.012;4.324;2024-02-26T15:52:29;8.17;;;3.33;;
35743;SDS011;21867;52.012;4.324;2024-02-26T15:54:56;10.50;;;3.43;;
35743;SDS011;21867;52.012;4.324;2024-02-26T15:57:23;10.97;;;4.37;;
35743;SDS011;21867;52.012;4.324;2024-02-26T15:59:51;5.80;;;3.80;;
35743;SDS011;21867;52.012;4.324;2024-02-26T16:02:19;4.10;;;3.70;;
35743;SDS011;21867;52.012;4.324;2024-02-26T16:04:47;10.03;;;3.73;;
35743;SDS011;21867;52.012;4.324;2024-02-26T16:07:17;8.17;;;3.10;;
35743;SDS011;21867;52.012;4.324;2024-02-26T16:13:34;10.20;;;3.17;;
35743;SDS011;21867;52.012;4.324;2024-02-26T16:16:02;5.70;;;3.27;;
35743;SDS011;21867;52.012;4.324;2024-02-26T16:18:31;9.53;;;4.23;;
35743;SDS011;21867;52.012;4.324;2024-02-26T16:21:02;4.73;;;3.60;;
35743;SDS011;21867;52.012;4.324;2024-02-26T16:26:39;3.63;;;3.33;;
35743;SDS011;21867;52.012;4.324;2024-02-26T16:29:07;5.83;;;3.60;;
35743;SDS011;21867;52.012;4.324;2024-02-26T16:31:34;9.70;;;4.20;;
35743;SDS011;21867;52.012;4.324;2024-02-26T16:34:02;9.67;;;4.17;;
35743;SDS011;21867;52.012;4.324;2024-02-26T16:36:31;3.67;;;3.37;;
35743;SDS011;21867;52.012;4.324;2024-02-26T16:41:40;1.93;;;1.77;;
35743;SDS011;21867;52.012;4.324;2024-02-26T16:44:08;6.60;;;3.53;;
35743;SDS011;21867;52.012;4.324;2024-02-26T16:46:35;6.10;;;3.80;;
35743;SDS011;21867;52.012;4.324;2024-02-26T16:49:02;6.23;;;3.57;;
35743;SDS011;21867;52.012;4.324;2024-02-26T16:51:38;5.77;;;3.53;;
35743;SDS011;21867;52.012;4.324;2024-02-26T16:54:15;9.67;;;3.77;;
35743;SDS011;21867;52.012;4.324;2024-02-26T17:02:15;3.77;;;3.47;;
35743;SDS011;21867;52.012;4.324;2024-02-26T17:04:42;6.57;;;3.80;;
35743;SDS011;21867;52.012;4.324;2024-02-26T17:07:11;5.20;;;2.87;;
35743;SDS011;21867;52.012;4.324;2024-02-26T17:12:24;3.40;;;3.10;;
35743;SDS011;21867;52.012;4.324;2024-02-26T17:14:52;3.87;;;2.53;;
35743;SDS011;21867;52.012;4.324;2024-02-26T17:17:19;3.73;;;3.50;;
35743;SDS011;21867;52.012;4.324;2024-02-26T17:19:46;3.37;;;3.07;;
35743;SDS011;21867;52.012;4.324;2024-02-26T17:22:15;4.20;;;3.40;;
35743;SDS011;21867;52.012;4.324;2024-02-26T17:24:43;3.33;;;3.03;;
35743;SDS011;21867;52.012;4.324;2024-02-26T17:27:10;7.20;;;3.93;;
35743;SDS011;21867;52.012;4.324;2024-02-26T17:29:37;6.40;;;3.17;;
35743;SDS011;21867;52.012;4.324;2024-02-26T17:32:05;5.10;;;3.17;;
35743;SDS011;21867;52.012;4.324;2024-02-26T17:34:37;5.10;;;3.33;;
35743;SDS011;21867;52.012;4.324;2024-02-26T17:37:05;3.80;;;3.30;;
35743;SDS011;21867;52.012;4.324;2024-02-26T17:39:33;8.17;;;3.27;;
35743;SDS011;21867;52.012;4.324;2024-02-26T17:42:01;5.87;;;3.20;;
35743;SDS011;21867;52.012;4.324;2024-02-26T17:44:33;6.43;;;3.23;;
35743;SDS011;21867;52.012;4.324;2024-02-26T17:47:00;3.40;;;3.10;;
35743;SDS011;21867;52.012;4.324;2024-02-26T17:49:27;3.40;;;3.10;;
35743;SDS011;21867;52.012;4.324;2024-02-26T17:51:55;3.53;;;3.17;;
35743;SDS011;21867;52.012;4.324;2024-02-26T17:54:22;3.80;;;2.87;;
35743;SDS011;21867;52.012;4.324;2024-02-26T17:56:51;3.13;;;2.90;;
35743;SDS011;21867;52.012;4.324;2024-02-26T17:59:19;5.73;;;2.87;;
35743;SDS011;21867;52.012;4.324;2024-02-26T18:01:46;2.53;;;2.33;;
35743;SDS011;21867;52.012;4.324;2024-02-26T18:04:14;2.90;;;2.70;;
35743;SDS011;21867;52.012;4.324;2024-02-26T18:06:41;5.07;;;2.97;;
35743;SDS011;21867;52.012;4.324;2024-02-26T18:09:09;3.10;;;2.83;;
35743;SDS011;21867;52.012;4.324;2024-02-26T18:11:36;5.37;;;3.97;;
35743;SDS011;21867;52.012;4.324;2024-02-26T18:14:05;5.10;;;2.50;;
35743;SDS011;21867;52.012;4.324;2024-02-26T18:16:32;4.17;;;2.70;;